Bernard Harbour, Canada
Current Conditions -  °F | °C
As of 10:00 PM on Monday 26 Jan 2015 (Local Time) from CYCO Reporting Station
Light Snow Light Snow  
Wind Chill: -40°   Ceiling: 9000
Heat Index: -17°   Visibility: 6mi
Dew Point: -22°   Wind: 14mph
Humidity: 76%   Direction: 260°W
Pressure: 29.96"   Gusts: NA
Location:  68.78°N, 114.78°W
Report Text: CYCO 270500Z 26012KT 6SM -SN DRSN FEW024 BKN090 M27/M30 A2996 RMK SC2AC3 SLP150
Loading
Personal Weather Stations






























Interactive Weather Map New forecast layout! Learn more

10-Day Weather Forecast

Advertisements
Track Severe Weather on mobile